createdAt,value
2022-08-02T00:02:19.639Z,18.88
2022-08-02T00:05:40.447Z,18.79
2022-08-02T00:09:01.481Z,18.71
2022-08-02T00:12:23.452Z,18.62
2022-08-02T00:15:44.397Z,18.55
2022-08-02T00:19:05.437Z,18.49
2022-08-02T00:22:26.418Z,18.47
2022-08-02T00:25:55.352Z,18.42
2022-08-02T00:29:16.437Z,18.39
2022-08-02T00:32:37.467Z,18.34
2022-08-02T00:35:58.472Z,18.31
2022-08-02T00:39:35.340Z,18.29
2022-08-02T00:42:56.423Z,18.27
2022-08-02T00:46:17.454Z,18.26
2022-08-02T00:49:38.537Z,18.22
2022-08-02T00:52:59.424Z,18.20
2022-08-02T00:56:20.424Z,18.16
2022-08-02T00:59:41.408Z,18.13
2022-08-02T01:02:55.413Z,18.09
2022-08-02T01:06:16.509Z,18.04
2022-08-02T01:09:37.463Z,18.00
2022-08-02T01:12:58.443Z,17.98
2022-08-02T01:16:27.431Z,17.96
2022-08-02T01:19:56.474Z,17.95
2022-08-02T01:23:53.433Z,17.98
2022-08-02T01:27:39.463Z,17.98
2022-08-02T01:31:04.462Z,17.97
2022-08-02T01:34:41.487Z,17.94
2022-08-02T01:38:12.452Z,17.91
2022-08-02T01:41:36.492Z,17.86
2022-08-02T01:44:59.469Z,17.89
2022-08-02T01:48:22.430Z,17.92
2022-08-02T01:52:03.467Z,17.94
2022-08-02T01:55:35.358Z,17.98
2022-08-02T01:59:09.446Z,18.03
2022-08-02T02:02:32.468Z,18.10
2022-08-02T02:05:54.490Z,18.21
2022-08-02T02:09:16.475Z,18.27
2022-08-02T02:12:38.472Z,18.34
2022-08-02T02:16:20.458Z,18.41
2022-08-02T02:19:42.452Z,18.51
2022-08-02T02:23:04.103Z,18.55
2022-08-02T02:26:31.200Z,18.59
2022-08-02T02:29:57.506Z,18.65
2022-08-02T02:33:22.671Z,18.70
2022-08-02T02:36:48.503Z,18.74
2022-08-02T02:40:10.449Z,18.78
2022-08-02T02:43:32.460Z,18.82
2022-08-02T02:46:54.459Z,18.86
2022-08-02T02:50:16.573Z,18.91
2022-08-02T02:54:33.739Z,18.94
2022-08-02T02:57:20.557Z,18.98
2022-08-02T03:01:00.543Z,19.07
2022-08-02T03:04:24.475Z,19.12
2022-08-02T03:07:47.491Z,19.20
2022-08-02T03:11:10.476Z,19.27
2022-08-02T03:14:31.474Z,19.33
2022-08-02T03:17:57.481Z,19.42
2022-08-02T03:21:20.512Z,19.49
2022-08-02T03:24:41.495Z,19.59
2022-08-02T03:28:02.555Z,19.68
2022-08-02T03:31:23.476Z,19.78
2022-08-02T03:34:44.499Z,19.88
2022-08-02T03:38:09.466Z,19.97
2022-08-02T03:41:32.509Z,20.07
2022-08-02T03:44:53.467Z,20.20
2022-08-02T03:48:30.534Z,20.26
2022-08-02T03:51:55.499Z,20.33
2022-08-02T03:55:16.495Z,20.44
2022-08-02T03:58:38.542Z,20.59
2022-08-02T04:01:59.487Z,20.85
2022-08-02T04:05:24.547Z,21.25
2022-08-02T04:08:46.506Z,21.60
2022-08-02T04:12:07.712Z,21.89
2022-08-02T04:15:29.492Z,22.18
2022-08-02T04:18:56.462Z,22.50
2022-08-02T04:22:19.511Z,22.67
2022-08-02T04:25:41.581Z,22.76
2022-08-02T04:29:04.556Z,22.83
2022-08-02T04:32:25.508Z,22.87
2022-08-02T04:35:46.539Z,22.90
2022-08-02T04:39:07.534Z,23.07
2022-08-02T04:42:36.493Z,23.36
2022-08-02T04:45:58.540Z,23.69
2022-08-02T04:49:20.554Z,23.98
2022-08-02T04:52:45.677Z,24.14
2022-08-02T04:56:06.538Z,24.14
2022-08-02T04:59:27.548Z,24.15
2022-08-02T05:02:48.490Z,24.20
2022-08-02T05:06:19.462Z,24.23
2022-08-02T05:09:40.571Z,24.17
2022-08-02T05:13:01.593Z,24.11
2022-08-02T05:16:22.512Z,24.05
2022-08-02T05:23:13.513Z,23.69
2022-08-02T05:26:34.522Z,23.55
2022-08-02T05:29:57.104Z,23.77
2022-08-02T05:33:17.588Z,23.98
2022-08-02T05:36:38.493Z,24.20
2022-08-02T05:40:03.547Z,24.61
2022-08-02T05:43:28.508Z,24.90
2022-08-02T05:46:49.515Z,25.16
2022-08-02T05:50:10.532Z,25.19
2022-08-02T05:54:18.501Z,25.40
2022-08-02T05:58:04.579Z,25.71
2022-08-02T06:01:27.535Z,25.81
2022-08-02T06:05:12.602Z,25.90
2022-08-02T06:08:36.549Z,26.00
2022-08-02T06:12:02.250Z,25.93
2022-08-02T06:15:27.522Z,26.12
2022-08-02T06:18:49.540Z,26.26
2022-08-02T06:22:36.111Z,26.36
2022-08-02T06:26:00.619Z,26.44
2022-08-02T06:29:23.280Z,26.29
2022-08-02T06:32:45.627Z,26.20
2022-08-02T06:36:24.558Z,26.26
2022-08-02T06:39:49.530Z,26.25
2022-08-02T06:43:26.556Z,26.36
2022-08-02T06:47:12.011Z,26.52
2022-08-02T06:50:29.604Z,26.86
2022-08-02T06:53:51.546Z,26.78
2022-08-02T06:57:12.606Z,26.28
2022-08-02T07:00:33.545Z,26.02
2022-08-02T07:03:54.539Z,25.79
2022-08-02T07:07:17.577Z,25.68
2022-08-02T07:10:38.554Z,25.59
2022-08-02T07:13:59.539Z,25.54
2022-08-02T07:17:20.541Z,25.48
2022-08-02T07:20:41.558Z,25.38
2022-08-02T07:24:02.555Z,25.22
2022-08-02T07:27:23.543Z,25.14
2022-08-02T07:30:39.599Z,25.21
2022-08-02T07:34:00.558Z,25.29
2022-08-02T07:37:22.359Z,25.41
2022-08-02T07:40:57.569Z,25.45
2022-08-02T07:44:18.558Z,25.55
2022-08-02T07:47:39.563Z,25.67
2022-08-02T07:51:00.601Z,25.84
2022-08-02T07:54:21.580Z,25.94
2022-08-02T07:57:46.211Z,25.94
2022-08-02T08:01:07.644Z,26.02
2022-08-02T08:04:24.748Z,26.34
2022-08-02T08:07:38.603Z,26.68
2022-08-02T08:11:00.556Z,26.92
2022-08-02T08:14:21.630Z,27.16
2022-08-02T08:17:42.577Z,27.37
2022-08-02T08:21:04.197Z,27.61
2022-08-02T08:24:25.594Z,27.60
2022-08-02T08:27:46.656Z,27.70
2022-08-02T08:31:07.567Z,27.99
2022-08-02T08:34:30.602Z,28.29
2022-08-02T08:37:52.608Z,28.62
2022-08-02T08:41:13.585Z,28.88
2022-08-02T08:44:34.566Z,28.75
2022-08-02T08:47:56.618Z,28.74
2022-08-02T08:51:51.550Z,29.13
2022-08-02T08:55:13.634Z,29.68
2022-08-02T08:58:34.581Z,29.84
2022-08-02T09:01:58.695Z,29.60
2022-08-02T09:05:37.599Z,29.49
2022-08-02T09:08:58.590Z,29.61
2022-08-02T09:12:33.620Z,29.64
2022-08-02T09:15:56.639Z,29.74
2022-08-02T09:19:36.630Z,29.67
2022-08-02T09:22:57.639Z,29.57
2022-08-02T09:26:21.590Z,29.25
2022-08-02T09:30:05.251Z,28.94
2022-08-02T09:33:23.629Z,28.84
2022-08-02T09:36:54.928Z,28.78
2022-08-02T09:40:17.600Z,28.82
2022-08-02T09:44:05.451Z,29.12
2022-08-02T09:47:30.935Z,29.63
2022-08-02T09:50:52.599Z,29.89
2022-08-02T09:54:16.604Z,30.04
2022-08-02T09:57:40.747Z,30.39
2022-08-02T10:01:11.680Z,30.65
2022-08-02T10:04:52.543Z,30.64
2022-08-02T10:08:46.677Z,30.85
2022-08-02T10:12:07.644Z,31.13
2022-08-02T10:15:29.650Z,31.35
2022-08-02T10:18:50.626Z,31.59
2022-08-02T10:22:30.633Z,31.45
2022-08-02T10:25:52.602Z,30.74
2022-08-02T10:29:13.589Z,30.35
2022-08-02T10:32:42.659Z,30.62
2022-08-02T10:36:07.985Z,30.86
2022-08-02T10:39:28.685Z,31.05
2022-08-02T10:43:01.698Z,30.77
2022-08-02T10:46:47.649Z,30.49
2022-08-02T10:50:10.705Z,30.18
2022-08-02T10:53:44.633Z,30.12
2022-08-02T10:57:07.662Z,29.97
2022-08-02T11:00:37.669Z,29.72
2022-08-02T11:03:58.641Z,29.73
2022-08-02T11:07:27.624Z,29.79
2022-08-02T11:10:44.659Z,29.75
2022-08-02T11:14:20.610Z,29.51
2022-08-02T11:17:41.637Z,29.48
2022-08-02T11:21:35.632Z,29.46
2022-08-02T11:24:56.707Z,29.47
2022-08-02T11:28:25.429Z,29.54
2022-08-02T11:31:54.696Z,29.54
2022-08-02T11:35:16.619Z,29.50
2022-08-02T11:38:37.705Z,29.42
2022-08-02T11:42:12.840Z,29.43
2022-08-02T11:45:39.645Z,29.61
2022-08-02T11:49:00.710Z,29.71
2022-08-02T11:52:22.657Z,29.90
2022-08-02T11:56:03.782Z,29.91
2022-08-02T11:59:18.665Z,29.96
2022-08-02T12:02:44.855Z,30.06
2022-08-02T12:06:10.964Z,30.12
2022-08-02T12:09:41.354Z,30.46
2022-08-02T12:13:11.654Z,30.62
2022-08-02T12:16:50.660Z,30.80
2022-08-02T12:20:11.645Z,30.98
2022-08-02T12:23:32.663Z,30.82
2022-08-02T12:27:00.649Z,30.63
2022-08-02T12:30:27.511Z,30.60
2022-08-02T12:34:00.700Z,30.54
2022-08-02T12:37:23.652Z,30.65
2022-08-02T12:40:39.696Z,30.64
2022-08-02T12:44:00.748Z,30.90
2022-08-02T12:47:22.683Z,31.89
2022-08-02T12:50:46.679Z,33.00
2022-08-02T12:54:08.685Z,34.68
2022-08-02T12:57:31.726Z,36.11
2022-08-02T13:00:52.664Z,36.56
2022-08-02T13:04:16.351Z,35.13
2022-08-02T13:07:37.742Z,35.67
2022-08-02T13:10:58.642Z,36.01
2022-08-02T13:14:19.721Z,37.17
2022-08-02T13:17:40.672Z,38.42
2022-08-02T13:21:01.720Z,38.41
2022-08-02T13:24:41.310Z,37.79
2022-08-02T13:28:04.734Z,37.60
2022-08-02T13:31:36.280Z,39.04
2022-08-02T13:34:57.662Z,40.57
2022-08-02T13:38:21.925Z,40.52
2022-08-02T13:41:45.677Z,40.86
2022-08-02T13:45:12.867Z,39.47
2022-08-02T13:48:34.690Z,37.40
2022-08-02T13:51:55.698Z,35.91
2022-08-02T13:55:16.762Z,35.28
2022-08-02T13:58:37.711Z,35.42
2022-08-02T14:01:58.968Z,36.16
2022-08-02T14:05:19.753Z,36.56
2022-08-02T14:09:00.765Z,35.43
2022-08-02T14:12:56.456Z,35.19
2022-08-02T14:16:17.688Z,36.56
2022-08-02T14:19:38.706Z,36.66
2022-08-02T14:23:00.662Z,36.69
2022-08-02T14:26:26.775Z,39.37
2022-08-02T14:29:48.715Z,40.68
2022-08-02T14:33:10.687Z,40.66
2022-08-02T14:36:31.701Z,39.31
2022-08-02T14:40:00.783Z,38.01
2022-08-02T14:43:41.672Z,38.80
2022-08-02T14:47:02.801Z,40.65
2022-08-02T14:50:24.677Z,41.90
2022-08-02T14:53:49.683Z,42.58
2022-08-02T14:57:23.752Z,41.91
2022-08-02T15:00:44.698Z,40.32
2022-08-02T15:04:05.716Z,40.62
2022-08-02T15:07:26.733Z,40.12
2022-08-02T15:10:47.740Z,39.14
2022-08-02T15:14:08.766Z,37.80
2022-08-02T15:17:29.735Z,35.97
2022-08-02T15:21:18.954Z,35.90
2022-08-02T15:24:46.737Z,35.40
2022-08-02T15:28:07.720Z,35.42
2022-08-02T15:31:33.630Z,37.45
2022-08-02T15:34:54.733Z,39.81
2022-08-02T15:38:15.722Z,41.36
2022-08-02T15:41:38.747Z,42.40
2022-08-02T15:44:59.731Z,42.83
2022-08-02T15:48:20.800Z,43.20
2022-08-02T15:51:41.697Z,43.24
2022-08-02T15:55:07.214Z,42.98
2022-08-02T15:58:28.738Z,43.13
2022-08-02T16:01:49.785Z,42.85
2022-08-02T16:05:13.957Z,42.52
2022-08-02T16:08:34.724Z,42.50
2022-08-02T16:11:55.760Z,42.23
2022-08-02T16:15:17.725Z,41.98
2022-08-02T16:18:38.739Z,41.55
2022-08-02T16:21:59.731Z,40.93
2022-08-02T16:25:20.722Z,40.49
2022-08-02T16:28:41.728Z,40.17
2022-08-02T16:32:02.731Z,39.87
2022-08-02T16:35:23.744Z,38.31
2022-08-02T16:38:44.784Z,35.79
2022-08-02T16:42:05.773Z,33.95
2022-08-02T16:45:26.713Z,32.55
2022-08-02T16:48:51.078Z,31.54
2022-08-02T16:52:11.713Z,30.76
2022-08-02T16:55:32.739Z,30.10
2022-08-02T16:58:53.719Z,29.57
2022-08-02T17:02:18.398Z,29.12
2022-08-02T17:05:56.158Z,28.70
2022-08-02T17:10:02.550Z,28.34
2022-08-02T17:13:11.528Z,27.99
2022-08-02T17:16:37.840Z,27.65
2022-08-02T17:20:00.803Z,27.33
2022-08-02T17:24:06.283Z,27.04
2022-08-02T17:27:08.902Z,26.75
2022-08-02T17:30:34.395Z,26.52
2022-08-02T17:33:54.832Z,26.36
2022-08-02T17:37:15.776Z,26.16
2022-08-02T17:40:38.758Z,25.97
2022-08-02T17:43:59.777Z,25.79
2022-08-02T17:47:22.766Z,25.67
2022-08-02T17:50:52.823Z,25.56
2022-08-02T17:54:13.772Z,25.45
2022-08-02T18:01:24.149Z,25.18
2022-08-02T18:04:44.758Z,25.03
2022-08-02T18:08:06.745Z,24.86
2022-08-02T18:11:52.512Z,24.72
2022-08-02T18:15:14.604Z,24.58
2022-08-02T18:18:35.735Z,24.46
2022-08-02T18:21:57.801Z,24.40
2022-08-02T18:25:37.252Z,24.36
2022-08-02T18:28:59.759Z,24.31
2022-08-02T18:33:58.840Z,24.25
2022-08-02T18:36:01.748Z,24.17
2022-08-02T18:39:22.859Z,24.12
2022-08-02T18:42:43.783Z,24.07
2022-08-02T18:46:16.252Z,24.01
2022-08-02T18:49:46.553Z,23.91
2022-08-02T18:53:08.794Z,23.87
2022-08-02T18:56:29.777Z,23.81
2022-08-02T18:59:55.783Z,23.81
2022-08-02T19:03:19.157Z,23.76
2022-08-02T19:06:39.814Z,23.73
2022-08-02T19:10:02.753Z,23.72
2022-08-02T19:13:25.775Z,23.67
2022-08-02T19:16:46.777Z,23.62
2022-08-02T19:20:08.805Z,23.61
2022-08-02T19:23:30.814Z,23.58
2022-08-02T19:27:04.759Z,23.52
2022-08-02T19:30:34.817Z,23.49
2022-08-02T19:34:07.274Z,23.48
2022-08-02T19:37:37.040Z,23.63
2022-08-02T19:40:59.799Z,23.81
2022-08-02T19:44:29.288Z,23.94
2022-08-02T19:47:54.316Z,24.08
2022-08-02T19:51:15.816Z,24.25
2022-08-02T19:54:59.669Z,24.39
2022-08-02T19:58:38.819Z,24.47
2022-08-02T20:02:05.799Z,24.53
2022-08-02T20:05:27.284Z,24.60
2022-08-02T20:08:52.831Z,24.62
2022-08-02T20:12:14.133Z,24.58
2022-08-02T20:15:56.235Z,24.49
2022-08-02T20:19:21.764Z,24.43
2022-08-02T20:23:32.150Z,24.41
2022-08-02T20:26:47.988Z,24.40
2022-08-02T20:30:09.822Z,24.31
2022-08-02T20:33:32.798Z,24.22
2022-08-02T20:36:54.113Z,24.13
2022-08-02T20:43:48.862Z,24.00
2022-08-02T20:47:09.850Z,23.93
2022-08-02T20:50:49.345Z,23.89
2022-08-02T20:54:11.818Z,23.79
2022-08-02T20:57:48.934Z,23.66
2022-08-02T21:01:13.881Z,23.57
2022-08-02T21:04:34.804Z,23.51
2022-08-02T21:07:56.865Z,23.39
2022-08-02T21:11:18.835Z,23.25
2022-08-02T21:14:39.832Z,23.16
2022-08-02T21:18:06.864Z,23.09
2022-08-02T21:21:26.848Z,22.94
2022-08-02T21:24:48.862Z,22.89
2022-08-02T21:28:17.419Z,22.86
2022-08-02T21:31:38.894Z,22.83
2022-08-02T21:35:02.851Z,22.77
2022-08-02T21:38:35.554Z,22.69
2022-08-02T21:41:57.904Z,22.57
2022-08-02T21:45:19.986Z,22.54
2022-08-02T21:48:40.843Z,22.48
2022-08-02T21:52:02.803Z,22.44
2022-08-02T21:55:24.358Z,22.43
2022-08-02T21:59:14.841Z,22.43
2022-08-02T22:02:36.841Z,22.36
2022-08-02T22:05:58.831Z,22.25
2022-08-02T22:09:42.293Z,22.18
2022-08-02T22:13:00.808Z,22.17
2022-08-02T22:16:21.823Z,22.18
2022-08-02T22:19:53.816Z,22.17
2022-08-02T22:26:56.865Z,22.09
2022-08-02T22:30:17.868Z,22.10
2022-08-02T22:34:01.284Z,22.12
2022-08-02T22:38:17.506Z,22.04
2022-08-02T22:41:04.885Z,21.92
2022-08-02T22:44:29.828Z,21.84
2022-08-02T22:47:51.410Z,21.80
2022-08-02T22:51:13.884Z,21.77
2022-08-02T22:54:34.836Z,21.74
2022-08-02T22:57:57.173Z,21.73
2022-08-02T22:58:41.285Z,25.34
2022-08-02T22:58:55.965Z,24.03
2022-08-02T22:59:10.715Z,22.13
2022-08-02T23:01:17.921Z,21.69
2022-08-02T23:04:38.905Z,21.68
2022-08-02T23:07:59.874Z,21.64
2022-08-02T23:11:20.875Z,21.62
2022-08-02T23:14:41.867Z,21.61
2022-08-02T23:18:21.841Z,21.53
2022-08-02T23:22:01.801Z,21.48
2022-08-02T23:25:23.988Z,21.49
2022-08-02T23:28:37.860Z,21.49
2022-08-02T23:31:59.930Z,21.44
2022-08-02T23:35:22.951Z,21.35
2022-08-02T23:38:43.896Z,21.28
2022-08-02T23:42:04.902Z,21.23
2022-08-02T23:45:25.850Z,21.21
2022-08-02T23:48:55.883Z,21.22
2022-08-02T23:52:17.250Z,21.30
2022-08-02T23:55:37.858Z,21.37
2022-08-02T23:58:59.904Z,21.43
